Time;durP1;ratioP1;P1;durP2;ratioP2;P2;SDS_P1;SDS_P2;PMS_P1;PMS_P2;Temp;Humidity;BMP_temperature;BMP_pressure;BME280_temperature;BME280_humidity;BME280_pressure;Samples;Min_cycle;Max_cycle;Signal;HPM_P1;HPM_P2
2021/04/21 00:02:03;;;;;;;12.82;10.05;;;5.00;99.90;;;;;;5064874;28;20910;-73
2021/04/21 00:04:32;;;;;;;9.70;8.30;;;5.00;99.90;;;;;;5066914;28;20205;-72
2021/04/21 00:07:00;;;;;;;11.80;9.40;;;5.00;99.90;;;;;;5065574;28;20569;-73
2021/04/21 00:09:27;;;;;;;13.48;9.80;;;4.90;99.90;;;;;;5065608;28;20232;-73
2021/04/21 00:11:54;;;;;;;13.05;9.57;;;4.90;99.90;;;;;;5132887;22;20290;-72
2021/04/21 00:14:22;;;;;;;12.82;9.30;;;4.90;99.90;;;;;;5038628;28;20217;-72
2021/04/21 00:16:52;;;;;;;10.93;9.30;;;4.90;99.90;;;;;;5048739;28;20205;-72
2021/04/21 00:19:20;;;;;;;11.48;8.57;;;4.80;99.90;;;;;;5060130;28;20534;-72
2021/04/21 00:21:50;;;;;;;12.25;9.07;;;4.90;99.90;;;;;;5068441;28;20208;-72
2021/04/21 00:24:17;;;;;;;12.02;9.77;;;4.80;99.90;;;;;;5068002;28;20657;-72
2021/04/21 00:26:45;;;;;;;12.20;9.63;;;4.80;99.90;;;;;;5064457;28;20193;-72
2021/04/21 00:29:14;;;;;;;10.75;8.68;;;4.80;99.90;;;;;;5048591;28;20599;-73
2021/04/21 00:31:44;;;;;;;12.07;9.27;;;4.80;99.90;;;;;;5047990;28;20208;-72
2021/04/21 00:34:13;;;;;;;13.18;9.50;;;4.70;99.90;;;;;;5048114;28;20274;-72
2021/04/21 00:36:42;;;;;;;10.80;9.10;;;4.70;99.90;;;;;;5048198;28;20569;-72
2021/04/21 00:39:11;;;;;;;11.65;9.27;;;4.70;99.90;;;;;;5048540;28;20297;-71
2021/04/21 00:41:45;;;;;;;12.90;9.20;;;4.60;99.90;;;;;;5047818;28;20209;-72
2021/04/21 00:44:21;;;;;;;11.57;9.32;;;4.60;99.90;;;;;;5047853;28;20224;-71
2021/04/21 00:46:50;;;;;;;11.38;8.73;;;4.60;99.90;;;;;;5048776;28;20687;-71
2021/04/21 00:49:21;;;;;;;12.00;9.80;;;4.60;99.90;;;;;;5048059;28;20275;-72
2021/04/21 00:51:51;;;;;;;12.65;8.80;;;4.60;99.90;;;;;;5048066;28;20212;-71
2021/04/21 00:54:31;;;;;;;14.20;10.43;;;4.60;99.90;;;;;;5048212;28;20220;-70
2021/04/21 00:57:04;;;;;;;10.48;8.80;;;4.50;99.90;;;;;;5048493;28;20620;-71
2021/04/21 00:59:43;;;;;;;12.23;9.40;;;4.50;99.90;;;;;;5047845;28;20302;-71
2021/04/21 01:02:12;;;;;;;11.60;9.88;;;4.50;99.90;;;;;;5046978;28;20201;-71
2021/04/21 01:04:40;;;;;;;12.55;9.90;;;4.40;99.90;;;;;;5054856;28;20468;-71
2021/04/21 01:07:09;;;;;;;13.05;9.68;;;4.40;99.90;;;;;;5053626;28;20193;-71
2021/04/21 01:09:40;;;;;;;14.13;9.88;;;4.40;99.90;;;;;;5056975;28;20212;-72
2021/04/21 01:12:10;;;;;;;15.43;9.55;;;4.40;99.90;;;;;;5057696;28;20208;-71
2021/04/21 01:14:40;;;;;;;13.98;11.15;;;4.40;99.90;;;;;;5049697;28;20221;-71
2021/04/21 01:17:08;;;;;;;10.73;9.30;;;4.30;99.90;;;;;;5047899;28;20197;-71
2021/04/21 01:19:44;;;;;;;11.73;8.73;;;4.30;99.90;;;;;;5047611;28;20233;-72
2021/04/21 01:22:15;;;;;;;12.50;9.93;;;4.30;99.90;;;;;;5047342;28;20204;-71
2021/04/21 01:24:51;;;;;;;14.07;9.50;;;4.30;99.90;;;;;;5047801;28;20538;-71
2021/04/21 01:27:20;;;;;;;12.50;10.05;;;4.30;99.90;;;;;;5047537;28;20200;-71
2021/04/21 01:29:53;;;;;;;12.93;9.65;;;4.20;99.90;;;;;;5047905;28;20712;-71
2021/04/21 01:32:25;;;;;;;13.82;10.23;;;4.20;99.90;;;;;;5050937;28;20205;-71
2021/04/21 01:34:54;;;;;;;12.25;9.20;;;4.20;99.90;;;;;;5051779;28;20254;-70
2021/04/21 01:37:29;;;;;;;14.43;10.55;;;4.20;99.90;;;;;;5051473;28;20611;-71
2021/04/21 01:40:00;;;;;;;12.05;9.50;;;4.10;99.90;;;;;;5051967;28;20224;-71
2021/04/21 01:42:32;;;;;;;15.82;9.68;;;4.10;99.90;;;;;;5051378;28;20197;-71
2021/04/21 01:45:00;;;;;;;16.08;10.40;;;4.10;99.90;;;;;;5051192;28;20201;-71
2021/04/21 01:47:26;;;;;;;15.35;10.63;;;4.10;99.90;;;;;;5051319;28;20201;-72
2021/04/21 01:49:59;;;;;;;13.75;10.30;;;4.00;99.90;;;;;;5051470;28;20220;-71
2021/04/21 01:52:51;;;;;;;14.13;10.77;;;4.00;99.90;;;;;;5054147;28;20284;-71
2021/04/21 01:55:46;;;;;;;16.70;11.32;;;4.00;99.90;;;;;;5051536;28;20291;-72
2021/04/21 01:58:22;;;;;;;16.45;10.68;;;4.00;99.90;;;;;;5051750;28;20619;-72
2021/04/21 02:00:53;;;;;;;14.55;10.52;;;3.90;99.90;;;;;;5051294;28;20254;-72
2021/04/21 02:03:23;;;;;;;14.43;10.75;;;3.90;99.90;;;;;;5051053;28;20201;-71
2021/04/21 02:06:08;;;;;;;12.95;9.60;;;3.90;99.90;;;;;;5051476;28;20635;-71
2021/04/21 02:08:46;;;;;;;16.63;11.48;;;3.90;99.90;;;;;;5050694;28;20221;-71
2021/04/21 02:11:17;;;;;;;14.63;11.10;;;3.90;99.90;;;;;;5050716;28;20205;-71
2021/04/21 02:14:02;;;;;;;17.08;12.32;;;3.80;99.90;;;;;;5051003;28;20221;-71
2021/04/21 02:16:38;;;;;;;16.02;11.55;;;3.80;99.90;;;;;;5050798;28;20271;-72
2021/04/21 02:19:16;;;;;;;15.73;11.07;;;3.80;99.90;;;;;;5051226;28;20229;-71
2021/04/21 02:21:49;;;;;;;15.30;11.55;;;3.80;99.90;;;;;;5050335;28;20211;-71
2021/04/21 02:24:27;;;;;;;16.42;10.80;;;3.80;99.90;;;;;;5051102;28;20205;-71
2021/04/21 02:27:00;;;;;;;13.93;11.13;;;3.70;99.90;;;;;;5050652;28;20735;-71
2021/04/21 02:29:34;;;;;;;16.42;13.00;;;3.70;99.90;;;;;;5050748;28;20229;-71
2021/04/21 02:32:09;;;;;;;15.65;12.52;;;3.70;99.90;;;;;;5050439;28;20203;-71
2021/04/21 02:34:46;;;;;;;18.02;12.70;;;3.70;99.90;;;;;;5050004;28;20220;-70
2021/04/21 02:37:20;;;;;;;20.52;12.27;;;3.60;99.90;;;;;;5051154;28;20208;-71
2021/04/21 02:39:55;;;;;;;18.27;13.43;;;3.60;99.90;;;;;;5050804;28;20586;-72
2021/04/21 02:42:27;;;;;;;17.58;13.30;;;3.60;99.90;;;;;;5049176;28;20204;-72
2021/04/21 02:45:00;;;;;;;17.17;12.77;;;3.60;99.90;;;;;;5050732;28;20676;-72
2021/04/21 02:47:37;;;;;;;18.85;12.60;;;3.60;99.90;;;;;;5050666;28;20231;-72
2021/04/21 02:50:10;;;;;;;14.82;11.13;;;3.60;99.90;;;;;;5050981;28;20594;-72
2021/04/21 02:52:49;;;;;;;16.10;11.93;;;3.60;99.90;;;;;;5050630;28;20209;-71
2021/04/21 02:55:27;;;;;;;17.73;12.80;;;3.60;99.90;;;;;;5050930;28;20250;-71
2021/04/21 02:58:02;;;;;;;17.83;12.77;;;3.50;99.90;;;;;;5050694;28;20201;-72
2021/04/21 03:00:34;;;;;;;25.85;13.98;;;3.50;99.90;;;;;;5049909;28;20631;-72
2021/04/21 03:03:13;;;;;;;19.48;13.48;;;3.50;99.90;;;;;;5050653;28;20220;-71
2021/04/21 03:05:45;;;;;;;19.48;14.00;;;3.40;99.90;;;;;;5050518;28;20212;-72
2021/04/21 03:08:19;;;;;;;18.00;12.68;;;3.40;99.90;;;;;;5050747;28;20256;-72
2021/04/21 03:10:48;;;;;;;20.88;12.75;;;3.40;99.90;;;;;;5049588;28;20205;-71
2021/04/21 03:13:17;;;;;;;19.40;13.55;;;3.40;99.90;;;;;;5049922;28;20700;-71
2021/04/21 03:15:46;;;;;;;17.50;13.60;;;3.40;99.90;;;;;;5050111;28;20227;-72
2021/04/21 03:18:17;;;;;;;21.60;14.68;;;3.40;99.90;;;;;;5050211;28;20270;-72
2021/04/21 03:20:46;;;;;;;19.15;13.18;;;3.40;99.90;;;;;;5050015;28;20212;-72
2021/04/21 03:23:15;;;;;;;21.10;13.90;;;3.40;99.90;;;;;;5050143;28;20197;-72
2021/04/21 03:25:43;;;;;;;21.10;14.80;;;3.30;99.90;;;;;;5050459;28;20262;-71
2021/04/21 03:28:13;;;;;;;21.70;14.75;;;3.30;99.90;;;;;;5049907;28;20608;-72
2021/04/21 03:30:42;;;;;;;17.15;13.30;;;3.30;99.90;;;;;;5049064;28;20209;-71
2021/04/21 03:33:12;;;;;;;16.48;13.63;;;3.30;99.90;;;;;;5050012;28;20217;-71
2021/04/21 03:35:42;;;;;;;18.98;14.75;;;3.20;99.90;;;;;;5049538;28;20665;-71
2021/04/21 03:38:10;;;;;;;23.55;15.68;;;3.20;99.90;;;;;;5049841;28;20201;-72
2021/04/21 03:40:37;;;;;;;20.77;14.75;;;3.20;99.90;;;;;;5048901;28;20300;-72
2021/04/21 03:43:05;;;;;;;23.05;15.05;;;3.30;99.90;;;;;;5049775;28;20220;-71
2021/04/21 03:45:33;;;;;;;23.33;16.40;;;3.30;99.90;;;;;;5049267;28;20205;-71
2021/04/21 03:48:00;;;;;;;26.27;17.08;;;3.20;99.90;;;;;;5049636;28;20699;-72
2021/04/21 03:50:27;;;;;;;24.90;16.85;;;3.20;99.90;;;;;;5049495;28;20691;-71
2021/04/21 03:52:57;;;;;;;26.50;16.30;;;3.20;99.90;;;;;;5050051;28;20220;-71
2021/04/21 03:55:24;;;;;;;24.20;18.02;;;3.10;99.90;;;;;;5049085;28;20255;-71
2021/04/21 03:57:56;;;;;;;30.30;17.70;;;3.10;99.90;;;;;;5049955;28;20262;-72
2021/04/21 04:00:24;;;;;;;29.73;16.80;;;3.10;99.90;;;;;;5049206;28;20205;-71
2021/04/21 04:02:54;;;;;;;24.50;16.73;;;3.00;99.90;;;;;;5050867;28;20729;-71
2021/04/21 04:05:24;;;;;;;21.70;15.43;;;3.00;99.90;;;;;;5042376;28;20204;-71
2021/04/21 04:07:54;;;;;;;22.42;15.82;;;3.10;99.90;;;;;;5046990;28;20210;-71
2021/04/21 04:10:25;;;;;;;25.85;16.50;;;3.10;99.90;;;;;;5063802;28;20686;-71
2021/04/21 04:12:53;;;;;;;21.52;15.70;;;3.10;99.90;;;;;;5068753;28;20461;-71
2021/04/21 04:15:21;;;;;;;26.35;17.50;;;3.00;99.90;;;;;;5064978;28;20660;-70
2021/04/21 04:17:50;;;;;;;24.73;16.40;;;2.90;99.90;;;;;;5048746;28;20642;-68
2021/04/21 04:20:17;;;;;;;24.00;16.25;;;2.90;99.90;;;;;;5048775;28;20271;-70
2021/04/21 04:22:47;;;;;;;22.65;16.30;;;2.90;99.90;;;;;;5048948;28;20208;-70
2021/04/21 04:25:14;;;;;;;24.73;16.67;;;2.90;99.90;;;;;;5048319;28;20185;-70
2021/04/21 04:27:42;;;;;;;27.08;18.40;;;2.90;99.90;;;;;;5049104;28;20332;-70
2021/04/21 04:30:10;;;;;;;21.33;15.30;;;2.90;99.90;;;;;;5048556;28;20217;-69
2021/04/21 04:32:40;;;;;;;21.33;15.77;;;2.90;99.90;;;;;;5046748;28;20201;-70
2021/04/21 04:35:08;;;;;;;24.15;15.68;;;2.90;99.90;;;;;;5046027;28;20221;-69
2021/04/21 04:37:38;;;;;;;26.05;17.73;;;2.90;99.90;;;;;;5045271;28;20204;-70
2021/04/21 04:40:05;;;;;;;21.75;14.77;;;2.90;99.90;;;;;;5045026;28;20253;-70
2021/04/21 04:42:33;;;;;;;28.00;19.00;;;2.90;99.90;;;;;;5045872;28;20361;-69
2021/04/21 04:45:02;;;;;;;24.95;15.35;;;2.90;99.90;;;;;;5047363;28;20543;-70
2021/04/21 04:47:31;;;;;;;25.75;17.48;;;2.90;99.90;;;;;;5046914;28;20555;-69
2021/04/21 04:50:03;;;;;;;26.23;17.23;;;2.80;99.90;;;;;;5048641;28;20225;-70
2021/04/21 04:52:33;;;;;;;24.52;15.75;;;2.90;99.90;;;;;;5047968;28;20637;-69
2021/04/21 04:55:00;;;;;;;24.67;16.42;;;2.90;99.90;;;;;;5048604;28;20231;-71
2021/04/21 04:57:29;;;;;;;25.25;15.70;;;2.80;99.90;;;;;;5047928;28;20209;-70
2021/04/21 05:00:00;;;;;;;22.75;15.32;;;2.90;99.90;;;;;;5048498;28;20255;-70
2021/04/21 05:02:29;;;;;;;21.52;14.82;;;2.90;99.90;;;;;;5052179;28;20205;-70
2021/04/21 05:04:58;;;;;;;22.52;15.15;;;3.00;99.90;;;;;;5047464;28;20264;-70
2021/04/21 05:07:28;;;;;;;21.67;15.20;;;3.00;99.90;;;;;;5047361;28;20254;-69
2021/04/21 05:09:58;;;;;;;21.67;14.65;;;3.00;99.90;;;;;;5053268;28;20641;-70
2021/04/21 05:12:27;;;;;;;20.13;15.05;;;3.00;99.90;;;;;;5054806;28;20718;-68
2021/04/21 05:14:54;;;;;;;23.02;14.93;;;3.10;99.90;;;;;;5048215;28;20275;-68
2021/04/21 05:17:57;;;;;;;29.15;16.17;;;3.20;99.90;;;;;;5047786;28;20258;-69
2021/04/21 05:21:10;;;;;;;21.50;14.82;;;3.20;99.90;;;;;;5046206;28;20196;-70
2021/04/21 05:24:17;;;;;;;22.63;14.82;;;3.30;99.90;;;;;;5045713;28;20559;-71
2021/04/21 05:27:29;;;;;;;21.85;15.02;;;3.40;99.90;;;;;;5047987;28;20208;-68
2021/04/21 05:30:34;;;;;;;22.50;15.68;;;3.50;99.90;;;;;;5012418;28;20713;-70
2021/04/21 05:34:00;;;;;;;24.75;15.27;;;3.60;99.90;;;;;;5026270;28;20201;-70
2021/04/21 05:37:13;;;;;;;21.20;15.10;;;3.70;99.90;;;;;;5044407;28;20222;-70
2021/04/21 05:40:11;;;;;;;22.35;16.08;;;3.80;99.90;;;;;;5043147;28;20281;-70
2021/04/21 05:43:15;;;;;;;26.85;16.35;;;4.00;99.90;;;;;;5025111;28;20664;-70
2021/04/21 05:46:14;;;;;;;22.13;14.80;;;4.10;99.90;;;;;;5047990;28;20204;-69
2021/04/21 05:49:02;;;;;;;21.10;14.98;;;4.20;99.90;;;;;;5047509;28;20225;-70
2021/04/21 05:51:51;;;;;;;17.50;13.32;;;4.30;99.90;;;;;;5046182;28;20606;-69
2021/04/21 05:54:55;;;;;;;21.80;13.85;;;4.40;99.90;;;;;;5045217;28;20225;-70
2021/04/21 05:57:50;;;;;;;21.48;15.70;;;4.60;99.90;;;;;;5047421;28;20197;-70
2021/04/21 06:00:44;;;;;;;24.58;16.63;;;4.70;99.90;;;;;;4992637;28;20228;-70
2021/04/21 06:03:11;;;;;;;23.33;15.93;;;4.90;99.90;;;;;;5048269;28;20228;-70
2021/04/21 06:05:38;;;;;;;19.70;15.80;;;5.00;99.90;;;;;;5048014;28;20254;-70
2021/04/21 06:08:11;;;;;;;21.73;15.93;;;5.20;99.90;;;;;;5048088;28;20255;-70
2021/04/21 06:10:38;;;;;;;22.55;15.60;;;5.30;99.90;;;;;;5047014;28;20232;-70
2021/04/21 06:13:04;;;;;;;21.83;15.07;;;5.50;99.90;;;;;;5047300;28;20217;-70
2021/04/21 06:15:32;;;;;;;20.63;15.93;;;5.60;99.90;;;;;;5137641;22;20239;-72
2021/04/21 06:18:01;;;;;;;22.02;16.30;;;5.70;99.90;;;;;;5050077;28;20200;-72
2021/04/21 06:20:33;;;;;;;24.23;17.65;;;5.90;99.90;;;;;;5049932;28;20209;-72
2021/04/21 06:23:01;;;;;;;23.75;17.48;;;6.10;99.90;;;;;;5051049;28;20217;-72
2021/04/21 06:25:28;;;;;;;26.10;17.77;;;6.20;99.90;;;;;;5050368;28;20201;-72
2021/04/21 06:28:10;;;;;;;27.50;17.33;;;6.40;99.90;;;;;;5050993;28;20204;-72
2021/04/21 06:30:37;;;;;;;24.77;18.35;;;6.60;99.90;;;;;;5050112;28;20228;-72
2021/04/21 06:33:04;;;;;;;21.80;16.30;;;6.80;99.90;;;;;;5058384;28;20223;-72
2021/04/21 06:35:31;;;;;;;24.35;17.65;;;7.00;99.90;;;;;;5070543;28;20275;-72
2021/04/21 06:37:58;;;;;;;24.35;18.00;;;7.10;99.90;;;;;;5070942;28;20200;-72
2021/04/21 06:40:27;;;;;;;23.60;18.27;;;7.40;99.90;;;;;;5069977;28;20253;-72
2021/04/21 06:42:54;;;;;;;21.63;17.23;;;7.60;99.90;;;;;;5070596;28;20588;-72
2021/04/21 06:45:24;;;;;;;26.67;18.90;;;7.80;99.90;;;;;;5070144;28;20201;-72
2021/04/21 06:47:52;;;;;;;26.90;19.00;;;8.00;99.90;;;;;;5071524;28;20200;-71
2021/04/21 06:50:19;;;;;;;25.75;18.38;;;8.30;99.90;;;;;;5070057;28;20196;-73
2021/04/21 06:52:45;;;;;;;20.90;17.17;;;8.50;99.90;;;;;;5070608;28;20493;-73
2021/04/21 06:55:14;;;;;;;19.73;16.40;;;8.70;99.90;;;;;;5070363;28;20650;-73
2021/04/21 06:57:42;;;;;;;23.05;16.17;;;8.90;99.90;;;;;;5070154;28;20215;-73
2021/04/21 07:00:11;;;;;;;23.27;17.30;;;9.10;99.90;;;;;;5069029;28;20220;-73
2021/04/21 07:02:39;;;;;;;20.83;16.67;;;9.30;99.90;;;;;;5049805;28;20594;-73
2021/04/21 07:05:25;;;;;;;21.52;15.95;;;9.50;99.90;;;;;;5050455;28;20201;-71
2021/04/21 07:07:58;;;;;;;23.30;17.42;;;9.70;99.90;;;;;;5050375;28;20251;-71
2021/04/21 07:10:25;;;;;;;19.88;16.73;;;9.90;99.90;;;;;;5048716;28;20201;-71
2021/04/21 07:12:52;;;;;;;21.73;17.05;;;10.00;99.90;;;;;;5049623;28;20205;-73
2021/04/21 07:15:20;;;;;;;24.10;18.20;;;10.30;99.90;;;;;;5049482;28;20224;-73
2021/04/21 07:17:47;;;;;;;25.20;16.95;;;10.50;99.90;;;;;;5049951;28;20233;-71
2021/04/21 07:20:15;;;;;;;19.95;16.60;;;10.60;99.90;;;;;;5049440;28;20643;-72
2021/04/21 07:22:42;;;;;;;21.58;17.00;;;10.80;99.90;;;;;;5049514;28;20696;-72
2021/04/21 07:25:09;;;;;;;20.40;16.00;;;10.90;99.90;;;;;;5049950;28;20680;-72
2021/04/21 07:27:36;;;;;;;20.83;15.65;;;11.10;99.90;;;;;;5049417;28;20215;-72
2021/04/21 07:30:04;;;;;;;21.13;16.58;;;11.30;99.90;;;;;;5049297;28;20662;-72
2021/04/21 07:32:32;;;;;;;19.73;15.35;;;11.40;99.90;;;;;;5049579;28;20205;-72
2021/04/21 07:35:00;;;;;;;22.30;16.83;;;11.60;99.90;;;;;;5049037;28;20224;-72
2021/04/21 07:37:34;;;;;;;21.08;17.00;;;11.70;99.90;;;;;;5049307;28;20204;-72
2021/04/21 07:40:01;;;;;;;19.00;15.88;;;11.90;99.90;;;;;;5049453;28;20237;-72
2021/04/21 07:42:33;;;;;;;21.42;16.10;;;12.00;99.90;;;;;;5048964;28;20205;-72
2021/04/21 07:45:01;;;;;;;18.77;15.30;;;12.10;99.90;;;;;;5050394;28;20292;-72
2021/04/21 07:47:35;;;;;;;19.23;16.30;;;12.30;99.90;;;;;;5048730;28;20826;-72
2021/04/21 07:50:04;;;;;;;19.23;16.03;;;12.40;99.90;;;;;;5053115;28;20224;-71
2021/04/21 07:52:31;;;;;;;22.20;17.43;;;12.60;99.90;;;;;;5088708;28;20454;-72
2021/04/21 07:55:09;;;;;;;23.20;16.88;;;12.70;99.90;;;;;;5088910;28;20535;-71
2021/04/21 07:57:36;;;;;;;20.43;15.63;;;12.80;99.90;;;;;;5089595;28;20199;-72
2021/04/21 08:00:06;;;;;;;20.83;15.90;;;13.00;99.90;;;;;;5089217;28;20481;-71
2021/04/21 08:02:36;;;;;;;18.70;14.20;;;13.20;99.90;;;;;;5088578;28;20960;-71
2021/04/21 08:05:07;;;;;;;22.00;15.90;;;13.40;99.90;;;;;;5088803;28;20542;-72
2021/04/21 08:07:39;;;;;;;18.17;14.80;;;13.50;99.90;;;;;;5088887;28;20469;-71
2021/04/21 08:10:21;;;;;;;26.10;17.17;;;13.70;99.90;;;;;;5089236;28;20486;-72
2021/04/21 08:12:47;;;;;;;21.83;17.37;;;13.90;99.90;;;;;;5088242;28;20493;-71
2021/04/21 08:15:14;;;;;;;20.90;17.23;;;14.00;99.90;;;;;;5088400;28;20506;-72
2021/04/21 08:17:54;;;;;;;27.83;16.00;;;14.20;99.90;;;;;;5089160;28;20457;-71
2021/04/21 08:20:26;;;;;;;18.00;15.07;;;14.30;99.90;;;;;;5088124;28;20840;-71
2021/04/21 08:22:57;;;;;;;18.90;15.17;;;14.60;99.00;;;;;;5089170;28;20457;-72
2021/04/21 08:25:23;;;;;;;17.87;15.27;;;14.90;97.50;;;;;;5088889;28;20824;-71
2021/04/21 08:27:49;;;;;;;18.00;14.40;;;15.20;97.40;;;;;;5088736;28;20473;-72
2021/04/21 08:30:17;;;;;;;20.37;15.57;;;15.60;97.50;;;;;;5086558;28;20502;-72
2021/04/21 08:32:43;;;;;;;20.93;15.93;;;15.90;98.00;;;;;;5088214;28;20518;-71
2021/04/21 08:35:12;;;;;;;17.43;14.27;;;16.10;96.40;;;;;;5088891;28;20869;-72
2021/04/21 08:37:39;;;;;;;20.97;15.57;;;16.40;95.70;;;;;;5053149;28;20465;-71
2021/04/21 08:40:07;;;;;;;15.23;12.77;;;17.00;94.60;;;;;;5047357;28;20978;-71
2021/04/21 08:42:38;;;;;;;12.23;10.90;;;17.50;93.70;;;;;;5048090;28;20460;-72
2021/04/21 08:45:05;;;;;;;16.30;13.37;;;18.10;91.90;;;;;;5047514;28;20857;-72
2021/04/21 08:47:34;;;;;;;14.00;12.57;;;18.50;91.30;;;;;;5047635;28;20467;-72
2021/04/21 08:50:01;;;;;;;16.60;13.97;;;18.90;91.20;;;;;;5048514;28;20506;-72
2021/04/21 08:52:40;;;;;;;18.90;14.83;;;19.30;90.60;;;;;;5047483;28;20463;-72
2021/04/21 08:55:08;;;;;;;13.73;12.30;;;19.80;88.20;;;;;;5048484;28;20487;-72
2021/04/21 08:57:37;;;;;;;15.90;13.80;;;20.10;86.40;;;;;;5048071;28;20463;-72
2021/04/21 09:00:04;;;;;;;20.00;12.80;;;20.30;85.40;;;;;;5048016;28;20480;-72
2021/04/21 09:02:30;;;;;;;14.10;12.20;;;20.70;83.40;;;;;;5054240;28;20459;-72
2021/04/21 09:04:56;;;;;;;12.67;10.47;;;20.90;80.70;;;;;;5067884;28;20583;-72
2021/04/21 09:07:23;;;;;;;14.40;11.43;;;21.20;79.50;;;;;;5067707;28;20459;-72
2021/04/21 09:09:50;;;;;;;12.40;10.93;;;21.40;78.40;;;;;;5068244;28;20480;-72
2021/04/21 09:12:16;;;;;;;12.27;11.03;;;21.60;76.30;;;;;;5067418;28;20459;-72
2021/04/21 09:14:43;;;;;;;16.00;13.17;;;21.70;76.60;;;;;;5067469;28;21157;-71
2021/04/21 09:17:09;;;;;;;13.40;11.90;;;21.80;74.10;;;;;;5068769;28;20477;-72
2021/04/21 09:19:36;;;;;;;12.77;11.47;;;21.90;77.30;;;;;;5064852;28;20483;-72
2021/04/21 09:22:04;;;;;;;12.67;10.97;;;22.20;75.70;;;;;;5051507;28;20468;-72
2021/04/21 09:24:31;;;;;;;11.00;9.87;;;22.50;74.50;;;;;;5056686;28;20473;-72
2021/04/21 09:26:58;;;;;;;15.60;10.80;;;22.90;73.60;;;;;;5049182;28;21268;-72
2021/04/21 09:29:26;;;;;;;11.63;10.43;;;23.20;72.90;;;;;;5059719;28;20854;-72
2021/04/21 09:32:05;;;;;;;11.80;10.60;;;23.20;69.60;;;;;;5056840;28;20456;-73
2021/04/21 09:34:32;;;;;;;11.83;10.00;;;23.40;69.90;;;;;;5052918;28;20894;-73
2021/04/21 09:36:58;;;;;;;13.63;11.00;;;23.90;69.30;;;;;;5055704;28;20549;-73
2021/04/21 09:39:24;;;;;;;12.57;10.83;;;24.20;68.60;;;;;;5055272;28;20483;-73
2021/04/21 09:42:00;;;;;;;11.57;10.40;;;24.10;66.80;;;;;;5046786;28;20550;-73
2021/04/21 09:44:28;;;;;;;11.80;10.60;;;24.00;67.00;;;;;;5046944;28;20445;-73
2021/04/21 09:46:56;;;;;;;12.00;10.80;;;24.10;67.10;;;;;;5062030;28;20455;-73
2021/04/21 09:49:31;;;;;;;12.73;11.30;;;23.80;71.00;;;;;;5050877;28;20483;-73
2021/04/21 09:51:58;;;;;;;14.13;12.77;;;24.00;67.20;;;;;;5064497;28;20994;-72
2021/04/21 09:54:30;;;;;;;13.57;11.60;;;23.70;68.10;;;;;;5070970;28;20489;-72
2021/04/21 09:57:07;;;;;;;12.83;11.00;;;23.60;70.70;;;;;;5071294;28;20524;-72
2021/04/21 09:59:34;;;;;;;12.40;11.17;;;23.80;66.50;;;;;;5070352;28;20482;-72
2021/04/21 10:02:00;;;;;;;15.13;11.70;;;24.00;65.70;;;;;;5070811;28;20487;-72
2021/04/21 10:04:27;;;;;;;13.80;12.10;;;23.60;65.40;;;;;;5070406;28;20462;-73
2021/04/21 10:06:55;;;;;;;13.40;11.63;;;23.50;67.70;;;;;;5071065;28;20463;-72
2021/04/21 10:09:33;;;;;;;10.57;9.50;;;23.70;68.10;;;;;;5071281;28;20478;-72
2021/04/21 10:12:18;;;;;;;11.30;10.20;;;24.10;67.70;;;;;;5070799;28;20450;-73
2021/04/21 10:14:46;;;;;;;12.07;10.87;;;24.90;65.40;;;;;;5086241;28;20487;-73
2021/04/21 10:17:13;;;;;;;12.23;11.13;;;25.60;64.30;;;;;;5092037;28;20468;-72
2021/04/21 10:19:41;;;;;;;12.20;10.70;;;25.60;63.00;;;;;;5091780;28;20489;-72
2021/04/21 10:22:11;;;;;;;11.27;10.10;;;25.90;60.40;;;;;;5091238;28;20506;-72
2021/04/21 10:24:39;;;;;;;12.20;10.97;;;25.40;63.60;;;;;;5092313;28;20464;-73
2021/04/21 10:27:06;;;;;;;11.67;10.53;;;25.40;60.30;;;;;;5091448;28;20480;-71
2021/04/21 10:29:36;;;;;;;11.40;10.00;;;25.00;61.30;;;;;;5091603;28;20477;-72
2021/04/21 10:32:03;;;;;;;11.10;9.80;;;24.80;62.70;;;;;;5090324;28;20489;-70
2021/04/21 10:34:30;;;;;;;8.63;7.83;;;25.20;63.90;;;;;;5090534;28;20477;-70
2021/04/21 10:36:56;;;;;;;8.60;7.90;;;25.70;60.70;;;;;;5091782;28;20458;-70
2021/04/21 10:39:29;;;;;;;10.00;9.00;;;25.90;59.80;;;;;;5090512;28;20484;-71
2021/04/21 10:42:06;;;;;;;9.97;8.97;;;26.30;62.80;;;;;;5090402;28;20458;-70
2021/04/21 10:44:33;;;;;;;9.63;8.70;;;26.20;59.50;;;;;;5090265;28;20499;-71
2021/04/21 10:47:02;;;;;;;9.37;8.50;;;26.00;55.30;;;;;;5090573;28;20847;-71
2021/04/21 10:49:55;;;;;;;9.43;8.37;;;26.00;55.30;;;;;;5090462;28;20474;-71
2021/04/21 10:52:32;;;;;;;8.33;7.53;;;26.00;58.30;;;;;;5086573;28;20497;-71
2021/04/21 10:54:59;;;;;;;9.77;8.77;;;26.50;58.80;;;;;;5090973;28;20503;-72
2021/04/21 10:57:34;;;;;;;9.80;8.87;;;26.60;58.30;;;;;;5090097;28;21020;-72
2021/04/21 11:00:13;;;;;;;8.63;7.80;;;26.70;55.90;;;;;;5090443;28;21006;-71
2021/04/21 11:02:51;;;;;;;8.53;7.67;;;26.80;60.40;;;;;;5049691;28;20490;-71
2021/04/21 11:05:19;;;;;;;9.90;9.00;;;26.90;57.50;;;;;;5049536;28;20512;-71
2021/04/21 11:07:47;;;;;;;9.30;7.97;;;26.80;58.10;;;;;;5050188;28;20524;-72
2021/04/21 11:10:35;;;;;;;8.50;7.70;;;27.20;55.60;;;;;;5049348;28;20480;-72
2021/04/21 11:13:01;;;;;;;10.03;9.17;;;27.00;55.50;;;;;;5050156;28;20470;-71
2021/04/21 11:15:35;;;;;;;10.47;9.47;;;26.70;55.70;;;;;;5049268;28;20529;-71
2021/04/21 11:18:35;;;;;;;8.67;7.87;;;26.40;57.70;;;;;;5053427;28;20469;-72
2021/04/21 11:21:04;;;;;;;9.70;8.70;;;26.80;58.30;;;;;;5058889;28;20512;-71
2021/04/21 11:23:52;;;;;;;9.37;8.47;;;27.00;56.10;;;;;;5069525;28;20465;-74
2021/04/21 11:26:35;;;;;;;8.37;7.57;;;27.20;57.10;;;;;;5049600;28;20463;-73
2021/04/21 11:29:04;;;;;;;10.03;8.80;;;27.40;55.60;;;;;;5049429;28;20476;-73
2021/04/21 11:32:07;;;;;;;8.90;8.10;;;28.20;55.10;;;;;;5048611;28;20463;-71
2021/04/21 11:34:35;;;;;;;8.80;8.00;;;28.60;53.60;;;;;;5049184;28;20483;-71
2021/04/21 11:37:04;;;;;;;9.77;8.87;;;28.20;53.20;;;;;;5049265;28;20587;-71
2021/04/21 11:40:08;;;;;;;9.80;8.80;;;28.60;53.60;;;;;;5049199;28;20502;-71
2021/04/21 11:42:38;;;;;;;8.67;7.97;;;28.80;53.90;;;;;;5049108;28;20468;-71
2021/04/21 11:45:24;;;;;;;10.30;8.90;;;29.50;53.80;;;;;;5049201;28;20556;-71
2021/04/21 11:47:52;;;;;;;9.20;8.40;;;29.10;53.90;;;;;;5049400;28;20459;-71
2021/04/21 11:50:30;;;;;;;10.17;9.13;;;29.10;53.70;;;;;;5048817;28;20462;-73
2021/04/21 11:52:59;;;;;;;10.93;9.10;;;29.50;53.70;;;;;;5049342;28;20467;-71
2021/04/21 11:55:34;;;;;;;9.80;8.83;;;29.00;54.20;;;;;;5048754;28;20856;-71
2021/04/21 11:58:03;;;;;;;10.53;9.53;;;28.70;54.80;;;;;;5049411;28;20546;-71
2021/04/21 12:00:32;;;;;;;9.30;8.50;;;28.50;51.70;;;;;;5048299;28;20874;-70
2021/04/21 12:03:00;;;;;;;10.20;8.30;;;28.30;51.90;;;;;;5049334;28;20464;-70
2021/04/21 12:05:31;;;;;;;7.57;6.97;;;27.40;52.90;;;;;;5048980;28;20459;-70
2021/04/21 12:07:58;;;;;;;8.53;7.73;;;27.00;52.90;;;;;;5048764;28;20455;-71
2021/04/21 12:10:29;;;;;;;10.27;8.27;;;26.60;54.40;;;;;;5048036;28;20967;-71
2021/04/21 12:13:25;;;;;;;7.77;7.07;;;27.20;52.10;;;;;;5048635;28;20468;-71
2021/04/21 12:15:55;;;;;;;9.10;8.20;;;27.50;55.70;;;;;;5207988;22;20874;-74
2021/04/21 12:18:35;;;;;;;10.07;7.33;;;27.70;53.00;;;;;;5076074;28;20528;-72
2021/04/21 12:21:05;;;;;;;7.50;6.83;;;27.40;53.20;;;;;;5068724;28;20462;-71
2021/04/21 12:23:34;;;;;;;8.97;8.00;;;26.60;54.70;;;;;;5069039;28;20466;-72
2021/04/21 12:26:01;;;;;;;11.37;8.23;;;25.10;55.80;;;;;;5068718;28;20529;-73
2021/04/21 12:28:28;;;;;;;9.70;8.80;;;24.30;56.70;;;;;;5068783;28;20478;-71
2021/04/21 12:30:56;;;;;;;8.50;7.70;;;23.50;56.70;;;;;;5068383;28;20450;-70
2021/04/21 12:33:23;;;;;;;10.40;8.20;;;22.80;57.30;;;;;;5068617;28;20446;-71
2021/04/21 12:35:57;;;;;;;9.10;8.20;;;22.40;58.40;;;;;;5068971;28;20475;-70
2021/04/21 12:38:30;;;;;;;9.73;8.80;;;21.70;58.80;;;;;;5068056;28;20487;-73
2021/04/21 12:40:58;;;;;;;10.30;9.20;;;21.20;59.00;;;;;;5068573;28;20883;-71
2021/04/21 12:43:31;;;;;;;9.70;8.80;;;20.70;59.30;;;;;;5068167;28;20475;-70
2021/04/21 12:46:17;;;;;;;9.30;8.40;;;20.60;61.50;;;;;;5068546;28;20966;-70
2021/04/21 12:48:49;;;;;;;8.83;8.03;;;20.40;62.10;;;;;;5068945;28;20482;-72
2021/04/21 12:51:21;;;;;;;9.83;7.13;;;20.40;63.50;;;;;;5067706;28;20470;-72
2021/04/21 12:53:49;;;;;;;7.37;6.57;;;20.40;61.10;;;;;;5068709;28;20469;-72
2021/04/21 12:56:16;;;;;;;8.33;6.70;;;20.50;62.10;;;;;;5068123;28;20462;-73
2021/04/21 12:58:46;;;;;;;7.80;7.10;;;20.50;62.30;;;;;;5068714;28;20500;-72
2021/04/21 13:01:15;;;;;;;8.10;7.40;;;20.50;59.70;;;;;;5068194;28;20557;-70
2021/04/21 13:03:56;;;;;;;10.23;7.90;;;20.50;60.10;;;;;;5068901;28;20454;-72
2021/04/21 13:06:42;;;;;;;8.77;7.97;;;20.60;60.80;;;;;;5069795;28;20458;-72